sensor_id;sensor_type;location;lat;lon;timestamp;P1;durP1;ratioP1;P2;durP2;ratioP2
76210;SDS011;65003;49.518;11.280;2023-05-07T00:00:11;4.20;;;2.37;;
76210;SDS011;65003;49.518;11.280;2023-05-07T00:02:38;2.30;;;1.90;;
76210;SDS011;65003;49.518;11.280;2023-05-07T00:05:05;2.40;;;2.20;;
76210;SDS011;65003;49.518;11.280;2023-05-07T00:07:32;2.93;;;1.80;;
76210;SDS011;65003;49.518;11.280;2023-05-07T00:09:58;2.97;;;2.70;;
76210;SDS011;65003;49.518;11.280;2023-05-07T00:12:25;5.43;;;2.10;;
76210;SDS011;65003;49.518;11.280;2023-05-07T00:14:52;3.57;;;1.87;;
76210;SDS011;65003;49.518;11.280;2023-05-07T00:17:18;3.57;;;2.60;;
76210;SDS011;65003;49.518;11.280;2023-05-07T00:19:45;7.13;;;2.33;;
76210;SDS011;65003;49.518;11.280;2023-05-07T00:22:11;4.10;;;3.23;;
76210;SDS011;65003;49.518;11.280;2023-05-07T00:24:38;1.87;;;1.77;;
76210;SDS011;65003;49.518;11.280;2023-05-07T00:27:05;3.70;;;2.20;;
76210;SDS011;65003;49.518;11.280;2023-05-07T00:29:31;2.90;;;2.60;;
76210;SDS011;65003;49.518;11.280;2023-05-07T00:31:58;2.83;;;2.43;;
76210;SDS011;65003;49.518;11.280;2023-05-07T00:34:25;4.63;;;2.33;;
76210;SDS011;65003;49.518;11.280;2023-05-07T00:36:51;3.87;;;2.17;;
76210;SDS011;65003;49.518;11.280;2023-05-07T00:39:18;2.53;;;2.23;;
76210;SDS011;65003;49.518;11.280;2023-05-07T00:41:45;4.40;;;2.37;;
76210;SDS011;65003;49.518;11.280;2023-05-07T00:44:11;3.60;;;2.50;;
76210;SDS011;65003;49.518;11.280;2023-05-07T00:46:38;3.07;;;2.43;;
76210;SDS011;65003;49.518;11.280;2023-05-07T00:49:04;3.83;;;2.20;;
76210;SDS011;65003;49.518;11.280;2023-05-07T00:51:31;2.97;;;2.10;;
76210;SDS011;65003;49.518;11.280;2023-05-07T00:53:57;3.33;;;2.50;;
76210;SDS011;65003;49.518;11.280;2023-05-07T00:56:24;6.17;;;2.43;;
76210;SDS011;65003;49.518;11.280;2023-05-07T00:58:51;2.63;;;2.30;;
76210;SDS011;65003;49.518;11.280;2023-05-07T01:01:17;2.17;;;1.97;;
76210;SDS011;65003;49.518;11.280;2023-05-07T01:03:44;4.37;;;2.70;;
76210;SDS011;65003;49.518;11.280;2023-05-07T01:06:10;3.40;;;2.53;;
76210;SDS011;65003;49.518;11.280;2023-05-07T01:08:37;6.87;;;2.27;;
76210;SDS011;65003;49.518;11.280;2023-05-07T01:11:04;2.67;;;2.47;;
76210;SDS011;65003;49.518;11.280;2023-05-07T01:13:30;5.13;;;2.63;;
76210;SDS011;65003;49.518;11.280;2023-05-07T01:15:57;3.43;;;2.70;;
76210;SDS011;65003;49.518;11.280;2023-05-07T01:18:23;4.07;;;2.90;;
76210;SDS011;65003;49.518;11.280;2023-05-07T01:20:50;2.83;;;2.40;;
76210;SDS011;65003;49.518;11.280;2023-05-07T01:23:17;4.50;;;3.20;;
76210;SDS011;65003;49.518;11.280;2023-05-07T01:25:43;5.70;;;2.60;;
76210;SDS011;65003;49.518;11.280;2023-05-07T01:28:10;4.93;;;2.53;;
76210;SDS011;65003;49.518;11.280;2023-05-07T01:30:45;4.63;;;3.10;;
76210;SDS011;65003;49.518;11.280;2023-05-07T01:33:04;5.43;;;3.30;;
76210;SDS011;65003;49.518;11.280;2023-05-07T01:35:32;4.40;;;2.93;;
76210;SDS011;65003;49.518;11.280;2023-05-07T01:37:57;4.23;;;3.00;;
76210;SDS011;65003;49.518;11.280;2023-05-07T01:40:24;3.40;;;3.10;;
76210;SDS011;65003;49.518;11.280;2023-05-07T01:42:50;3.50;;;2.90;;
76210;SDS011;65003;49.518;11.280;2023-05-07T01:45:17;3.43;;;3.07;;
76210;SDS011;65003;49.518;11.280;2023-05-07T01:47:44;4.10;;;3.33;;
76210;SDS011;65003;49.518;11.280;2023-05-07T01:50:10;4.57;;;3.30;;
76210;SDS011;65003;49.518;11.280;2023-05-07T01:52:38;3.83;;;3.53;;
76210;SDS011;65003;49.518;11.280;2023-05-07T01:55:05;4.67;;;3.53;;
76210;SDS011;65003;49.518;11.280;2023-05-07T01:57:32;4.60;;;3.47;;
76210;SDS011;65003;49.518;11.280;2023-05-07T01:59:59;6.10;;;3.63;;
76210;SDS011;65003;49.518;11.280;2023-05-07T02:02:26;4.47;;;3.83;;
76210;SDS011;65003;49.518;11.280;2023-05-07T02:04:52;8.57;;;4.37;;
76210;SDS011;65003;49.518;11.280;2023-05-07T02:07:19;4.80;;;4.03;;
76210;SDS011;65003;49.518;11.280;2023-05-07T02:09:45;6.63;;;3.97;;
76210;SDS011;65003;49.518;11.280;2023-05-07T02:12:12;4.73;;;4.33;;
76210;SDS011;65003;49.518;11.280;2023-05-07T02:14:38;5.87;;;4.10;;
76210;SDS011;65003;49.518;11.280;2023-05-07T02:17:05;4.97;;;4.53;;
76210;SDS011;65003;49.518;11.280;2023-05-07T02:19:32;6.33;;;4.33;;
76210;SDS011;65003;49.518;11.280;2023-05-07T02:21:58;6.57;;;5.87;;
76210;SDS011;65003;49.518;11.280;2023-05-07T02:24:25;4.43;;;4.00;;
76210;SDS011;65003;49.518;11.280;2023-05-07T02:26:51;4.93;;;3.80;;
76210;SDS011;65003;49.518;11.280;2023-05-07T02:29:18;3.97;;;3.67;;
76210;SDS011;65003;49.518;11.280;2023-05-07T02:31:44;4.87;;;4.33;;
76210;SDS011;65003;49.518;11.280;2023-05-07T02:34:11;4.27;;;3.97;;
76210;SDS011;65003;49.518;11.280;2023-05-07T02:36:38;5.77;;;4.77;;
76210;SDS011;65003;49.518;11.280;2023-05-07T02:39:04;5.07;;;4.40;;
76210;SDS011;65003;49.518;11.280;2023-05-07T02:41:31;6.77;;;4.70;;
76210;SDS011;65003;49.518;11.280;2023-05-07T02:43:58;6.80;;;4.37;;
76210;SDS011;65003;49.518;11.280;2023-05-07T02:46:25;6.37;;;4.80;;
76210;SDS011;65003;49.518;11.280;2023-05-07T02:48:51;8.40;;;5.70;;
76210;SDS011;65003;49.518;11.280;2023-05-07T02:51:19;5.03;;;4.50;;
76210;SDS011;65003;49.518;11.280;2023-05-07T02:53:44;5.03;;;4.53;;
76210;SDS011;65003;49.518;11.280;2023-05-07T02:56:11;6.97;;;5.20;;
76210;SDS011;65003;49.518;11.280;2023-05-07T02:58:38;6.30;;;4.70;;
76210;SDS011;65003;49.518;11.280;2023-05-07T03:01:05;6.37;;;4.90;;
76210;SDS011;65003;49.518;11.280;2023-05-07T03:03:32;6.87;;;5.67;;
76210;SDS011;65003;49.518;11.280;2023-05-07T03:05:58;6.50;;;5.20;;
76210;SDS011;65003;49.518;11.280;2023-05-07T03:08:25;8.83;;;5.53;;
76210;SDS011;65003;49.518;11.280;2023-05-07T03:10:51;6.60;;;5.43;;
76210;SDS011;65003;49.518;11.280;2023-05-07T03:13:18;6.03;;;5.40;;
76210;SDS011;65003;49.518;11.280;2023-05-07T03:15:45;8.93;;;6.60;;
76210;SDS011;65003;49.518;11.280;2023-05-07T03:18:11;6.83;;;5.73;;
76210;SDS011;65003;49.518;11.280;2023-05-07T03:20:38;8.93;;;5.87;;
76210;SDS011;65003;49.518;11.280;2023-05-07T03:23:04;6.50;;;5.40;;
76210;SDS011;65003;49.518;11.280;2023-05-07T03:25:31;6.33;;;5.57;;
76210;SDS011;65003;49.518;11.280;2023-05-07T03:27:58;8.27;;;6.00;;
76210;SDS011;65003;49.518;11.280;2023-05-07T03:30:24;6.93;;;6.23;;
76210;SDS011;65003;49.518;11.280;2023-05-07T03:32:51;7.07;;;6.10;;
76210;SDS011;65003;49.518;11.280;2023-05-07T03:35:18;7.90;;;5.83;;
76210;SDS011;65003;49.518;11.280;2023-05-07T03:37:44;6.70;;;6.10;;
76210;SDS011;65003;49.518;11.280;2023-05-07T03:40:11;7.73;;;6.30;;
76210;SDS011;65003;49.518;11.280;2023-05-07T03:42:38;7.80;;;6.40;;
76210;SDS011;65003;49.518;11.280;2023-05-07T03:45:04;7.17;;;6.23;;
76210;SDS011;65003;49.518;11.280;2023-05-07T03:47:31;7.00;;;6.30;;
76210;SDS011;65003;49.518;11.280;2023-05-07T03:49:58;7.63;;;6.10;;
76210;SDS011;65003;49.518;11.280;2023-05-07T03:52:25;8.90;;;6.70;;
76210;SDS011;65003;49.518;11.280;2023-05-07T03:54:52;8.13;;;6.47;;
76210;SDS011;65003;49.518;11.280;2023-05-07T03:57:18;8.00;;;6.90;;
76210;SDS011;65003;49.518;11.280;2023-05-07T03:59:44;8.13;;;6.57;;
76210;SDS011;65003;49.518;11.280;2023-05-07T04:02:11;8.50;;;7.47;;
76210;SDS011;65003;49.518;11.280;2023-05-07T04:04:38;8.10;;;6.83;;
76210;SDS011;65003;49.518;11.280;2023-05-07T04:07:04;7.43;;;6.47;;
76210;SDS011;65003;49.518;11.280;2023-05-07T04:09:31;7.63;;;6.83;;
76210;SDS011;65003;49.518;11.280;2023-05-07T04:11:57;7.80;;;7.00;;
76210;SDS011;65003;49.518;11.280;2023-05-07T04:14:24;10.93;;;7.60;;
76210;SDS011;65003;49.518;11.280;2023-05-07T04:16:51;8.83;;;6.83;;
76210;SDS011;65003;49.518;11.280;2023-05-07T04:19:17;7.70;;;6.90;;
76210;SDS011;65003;49.518;11.280;2023-05-07T04:21:44;8.30;;;7.40;;
76210;SDS011;65003;49.518;11.280;2023-05-07T04:24:11;10.57;;;7.73;;
76210;SDS011;65003;49.518;11.280;2023-05-07T04:26:37;10.20;;;7.27;;
76210;SDS011;65003;49.518;11.280;2023-05-07T04:29:04;8.20;;;7.27;;
76210;SDS011;65003;49.518;11.280;2023-05-07T04:31:30;10.00;;;7.27;;
76210;SDS011;65003;49.518;11.280;2023-05-07T04:33:57;9.23;;;7.70;;
76210;SDS011;65003;49.518;11.280;2023-05-07T04:36:24;10.17;;;6.97;;
76210;SDS011;65003;49.518;11.280;2023-05-07T04:38:51;9.90;;;7.53;;
76210;SDS011;65003;49.518;11.280;2023-05-07T04:41:17;8.87;;;7.30;;
76210;SDS011;65003;49.518;11.280;2023-05-07T04:43:44;8.50;;;7.17;;
76210;SDS011;65003;49.518;11.280;2023-05-07T04:46:11;7.80;;;6.80;;
76210;SDS011;65003;49.518;11.280;2023-05-07T04:48:37;10.10;;;7.50;;
76210;SDS011;65003;49.518;11.280;2023-05-07T04:51:04;8.07;;;7.27;;
76210;SDS011;65003;49.518;11.280;2023-05-07T04:53:30;8.67;;;6.80;;
76210;SDS011;65003;49.518;11.280;2023-05-07T04:55:57;8.43;;;7.63;;
76210;SDS011;65003;49.518;11.280;2023-05-07T04:58:23;9.33;;;7.40;;
76210;SDS011;65003;49.518;11.280;2023-05-07T05:00:50;7.80;;;7.07;;
76210;SDS011;65003;49.518;11.280;2023-05-07T05:03:17;8.13;;;6.77;;
76210;SDS011;65003;49.518;11.280;2023-05-07T05:05:43;6.90;;;6.27;;
76210;SDS011;65003;49.518;11.280;2023-05-07T05:08:10;9.77;;;6.93;;
76210;SDS011;65003;49.518;11.280;2023-05-07T05:10:36;9.67;;;6.93;;
76210;SDS011;65003;49.518;11.280;2023-05-07T05:13:03;7.90;;;7.10;;
76210;SDS011;65003;49.518;11.280;2023-05-07T05:15:30;7.67;;;6.80;;
76210;SDS011;65003;49.518;11.280;2023-05-07T05:17:56;8.53;;;6.70;;
76210;SDS011;65003;49.518;11.280;2023-05-07T05:20:23;9.93;;;7.10;;
76210;SDS011;65003;49.518;11.280;2023-05-07T05:22:49;7.63;;;6.93;;
76210;SDS011;65003;49.518;11.280;2023-05-07T05:25:16;9.37;;;7.03;;
76210;SDS011;65003;49.518;11.280;2023-05-07T05:27:43;7.87;;;7.07;;
76210;SDS011;65003;49.518;11.280;2023-05-07T05:30:09;7.73;;;6.80;;
76210;SDS011;65003;49.518;11.280;2023-05-07T05:32:36;10.63;;;7.10;;
76210;SDS011;65003;49.518;11.280;2023-05-07T05:35:03;8.10;;;7.30;;
76210;SDS011;65003;49.518;11.280;2023-05-07T05:37:30;8.70;;;6.93;;
76210;SDS011;65003;49.518;11.280;2023-05-07T05:39:57;6.57;;;5.97;;
76210;SDS011;65003;49.518;11.280;2023-05-07T05:42:23;8.03;;;6.13;;
76210;SDS011;65003;49.518;11.280;2023-05-07T05:44:50;9.83;;;6.43;;
76210;SDS011;65003;49.518;11.280;2023-05-07T05:47:17;7.17;;;6.47;;
76210;SDS011;65003;49.518;11.280;2023-05-07T05:49:43;7.53;;;6.80;;
76210;SDS011;65003;49.518;11.280;2023-05-07T05:52:11;8.37;;;6.83;;
76210;SDS011;65003;49.518;11.280;2023-05-07T05:54:36;7.60;;;6.80;;
76210;SDS011;65003;49.518;11.280;2023-05-07T05:57:03;8.13;;;6.23;;
76210;SDS011;65003;49.518;11.280;2023-05-07T05:59:30;7.37;;;6.67;;
76210;SDS011;65003;49.518;11.280;2023-05-07T06:01:56;7.73;;;6.77;;
76210;SDS011;65003;49.518;11.280;2023-05-07T06:04:23;8.90;;;6.93;;
76210;SDS011;65003;49.518;11.280;2023-05-07T06:06:49;8.77;;;6.70;;
76210;SDS011;65003;49.518;11.280;2023-05-07T06:09:16;8.13;;;6.50;;
76210;SDS011;65003;49.518;11.280;2023-05-07T06:11:43;8.80;;;6.50;;
76210;SDS011;65003;49.518;11.280;2023-05-07T06:14:09;9.20;;;7.20;;
76210;SDS011;65003;49.518;11.280;2023-05-07T06:16:36;7.67;;;6.87;;
76210;SDS011;65003;49.518;11.280;2023-05-07T06:19:02;7.87;;;7.07;;
76210;SDS011;65003;49.518;11.280;2023-05-07T06:21:29;8.10;;;6.83;;
76210;SDS011;65003;49.518;11.280;2023-05-07T06:23:56;9.60;;;7.53;;
76210;SDS011;65003;49.518;11.280;2023-05-07T06:26:22;7.07;;;6.37;;
76210;SDS011;65003;49.518;11.280;2023-05-07T06:28:49;7.63;;;6.83;;
76210;SDS011;65003;49.518;11.280;2023-05-07T06:31:16;8.57;;;6.97;;
76210;SDS011;65003;49.518;11.280;2023-05-07T06:33:42;7.43;;;6.57;;
76210;SDS011;65003;49.518;11.280;2023-05-07T06:36:09;9.90;;;6.87;;
76210;SDS011;65003;49.518;11.280;2023-05-07T06:38:35;8.87;;;6.17;;
76210;SDS011;65003;49.518;11.280;2023-05-07T06:41:02;8.07;;;6.80;;
76210;SDS011;65003;49.518;11.280;2023-05-07T06:43:29;6.93;;;6.23;;
76210;SDS011;65003;49.518;11.280;2023-05-07T06:45:55;7.77;;;6.73;;
76210;SDS011;65003;49.518;11.280;2023-05-07T06:48:22;7.40;;;6.70;;
76210;SDS011;65003;49.518;11.280;2023-05-07T06:50:48;8.30;;;6.93;;
76210;SDS011;65003;49.518;11.280;2023-05-07T06:53:15;7.03;;;6.33;;
76210;SDS011;65003;49.518;11.280;2023-05-07T06:55:41;7.13;;;6.30;;
76210;SDS011;65003;49.518;11.280;2023-05-07T06:58:08;9.50;;;6.60;;
76210;SDS011;65003;49.518;11.280;2023-05-07T07:00:35;9.93;;;7.20;;
76210;SDS011;65003;49.518;11.280;2023-05-07T07:03:01;9.07;;;7.00;;
76210;SDS011;65003;49.518;11.280;2023-05-07T07:05:28;7.20;;;6.50;;
76210;SDS011;65003;49.518;11.280;2023-05-07T07:07:54;8.07;;;7.17;;
76210;SDS011;65003;49.518;11.280;2023-05-07T07:10:21;8.27;;;6.83;;
76210;SDS011;65003;49.518;11.280;2023-05-07T07:12:48;7.73;;;6.93;;
76210;SDS011;65003;49.518;11.280;2023-05-07T07:15:14;8.37;;;6.60;;
76210;SDS011;65003;49.518;11.280;2023-05-07T07:17:41;8.03;;;7.10;;
76210;SDS011;65003;49.518;11.280;2023-05-07T07:20:08;8.77;;;7.50;;
76210;SDS011;65003;49.518;11.280;2023-05-07T07:22:35;7.87;;;7.07;;
76210;SDS011;65003;49.518;11.280;2023-05-07T07:25:01;8.67;;;6.80;;
76210;SDS011;65003;49.518;11.280;2023-05-07T07:27:28;7.13;;;6.43;;
76210;SDS011;65003;49.518;11.280;2023-05-07T07:29:54;6.93;;;6.13;;
76210;SDS011;65003;49.518;11.280;2023-05-07T07:32:21;6.30;;;5.70;;
76210;SDS011;65003;49.518;11.280;2023-05-07T07:34:47;8.83;;;5.80;;
76210;SDS011;65003;49.518;11.280;2023-05-07T07:37:14;6.97;;;6.17;;
76210;SDS011;65003;49.518;11.280;2023-05-07T07:39:41;7.80;;;5.77;;
76210;SDS011;65003;49.518;11.280;2023-05-07T07:42:07;6.67;;;5.53;;
76210;SDS011;65003;49.518;11.280;2023-05-07T07:44:34;7.53;;;6.13;;
76210;SDS011;65003;49.518;11.280;2023-05-07T07:47:01;6.83;;;5.50;;
76210;SDS011;65003;49.518;11.280;2023-05-07T07:49:27;6.87;;;5.77;;
76210;SDS011;65003;49.518;11.280;2023-05-07T07:51:54;7.17;;;5.33;;
76210;SDS011;65003;49.518;11.280;2023-05-07T07:54:20;6.00;;;5.40;;
76210;SDS011;65003;49.518;11.280;2023-05-07T07:56:47;5.30;;;4.80;;
76210;SDS011;65003;49.518;11.280;2023-05-07T07:59:14;5.43;;;4.97;;
76210;SDS011;65003;49.518;11.280;2023-05-07T08:01:40;5.97;;;5.37;;
76210;SDS011;65003;49.518;11.280;2023-05-07T08:04:07;5.67;;;5.17;;
76210;SDS011;65003;49.518;11.280;2023-05-07T08:06:33;5.57;;;5.10;;
76210;SDS011;65003;49.518;11.280;2023-05-07T08:09:00;6.10;;;5.50;;
76210;SDS011;65003;49.518;11.280;2023-05-07T08:11:26;7.00;;;5.10;;
76210;SDS011;65003;49.518;11.280;2023-05-07T08:13:54;5.80;;;5.23;;
76210;SDS011;65003;49.518;11.280;2023-05-07T08:16:20;6.00;;;5.40;;
76210;SDS011;65003;49.518;11.280;2023-05-07T08:18:47;5.83;;;5.27;;
76210;SDS011;65003;49.518;11.280;2023-05-07T08:21:13;9.20;;;5.27;;
76210;SDS011;65003;49.518;11.280;2023-05-07T08:23:40;6.30;;;5.70;;
76210;SDS011;65003;49.518;11.280;2023-05-07T08:26:07;6.20;;;5.60;;
76210;SDS011;65003;49.518;11.280;2023-05-07T08:28:33;6.13;;;5.57;;
76210;SDS011;65003;49.518;11.280;2023-05-07T08:31:00;6.53;;;5.53;;
76210;SDS011;65003;49.518;11.280;2023-05-07T08:33:26;6.57;;;5.97;;
76210;SDS011;65003;49.518;11.280;2023-05-07T08:35:53;7.13;;;6.37;;
76210;SDS011;65003;49.518;11.280;2023-05-07T08:38:20;7.00;;;6.13;;
76210;SDS011;65003;49.518;11.280;2023-05-07T08:40:47;6.97;;;6.30;;
76210;SDS011;65003;49.518;11.280;2023-05-07T08:43:14;6.80;;;6.10;;
76210;SDS011;65003;49.518;11.280;2023-05-07T08:45:40;8.00;;;6.27;;
76210;SDS011;65003;49.518;11.280;2023-05-07T08:48:09;7.57;;;6.80;;
76210;SDS011;65003;49.518;11.280;2023-05-07T08:50:35;6.77;;;5.97;;
76210;SDS011;65003;49.518;11.280;2023-05-07T08:53:03;7.13;;;6.17;;
76210;SDS011;65003;49.518;11.280;2023-05-07T08:55:29;6.53;;;5.60;;
76210;SDS011;65003;49.518;11.280;2023-05-07T08:57:55;8.30;;;6.07;;
76210;SDS011;65003;49.518;11.280;2023-05-07T09:00:22;6.40;;;5.80;;
76210;SDS011;65003;49.518;11.280;2023-05-07T09:02:49;5.50;;;5.00;;
76210;SDS011;65003;49.518;11.280;2023-05-07T09:05:15;5.57;;;4.57;;
76210;SDS011;65003;49.518;11.280;2023-05-07T09:07:42;5.60;;;5.00;;
76210;SDS011;65003;49.518;11.280;2023-05-07T09:10:08;7.60;;;4.83;;
76210;SDS011;65003;49.518;11.280;2023-05-07T09:12:35;5.07;;;4.63;;
76210;SDS011;65003;49.518;11.280;2023-05-07T09:15:02;6.50;;;4.60;;
76210;SDS011;65003;49.518;11.280;2023-05-07T09:17:28;5.33;;;4.63;;
76210;SDS011;65003;49.518;11.280;2023-05-07T09:19:55;5.83;;;5.23;;
76210;SDS011;65003;49.518;11.280;2023-05-07T09:22:22;5.63;;;4.93;;
76210;SDS011;65003;49.518;11.280;2023-05-07T09:24:49;5.17;;;4.63;;
76210;SDS011;65003;49.518;11.280;2023-05-07T09:27:15;5.67;;;5.17;;
76210;SDS011;65003;49.518;11.280;2023-05-07T09:29:42;5.60;;;5.00;;
76210;SDS011;65003;49.518;11.280;2023-05-07T09:32:08;6.10;;;5.50;;
76210;SDS011;65003;49.518;11.280;2023-05-07T09:34:35;5.60;;;5.10;;
76210;SDS011;65003;49.518;11.280;2023-05-07T09:37:02;5.30;;;4.63;;
76210;SDS011;65003;49.518;11.280;2023-05-07T09:42:07;5.17;;;4.77;;
76210;SDS011;65003;49.518;11.280;2023-05-07T09:44:34;5.47;;;5.07;;
76210;SDS011;65003;49.518;11.280;2023-05-07T09:47:00;4.72;;;4.33;;
76210;SDS011;65003;49.518;11.280;2023-05-07T09:49:29;5.00;;;4.60;;
76210;SDS011;65003;49.518;11.280;2023-05-07T09:51:53;5.10;;;4.70;;
76210;SDS011;65003;49.518;11.280;2023-05-07T09:54:19;5.17;;;4.67;;
76210;SDS011;65003;49.518;11.280;2023-05-07T09:56:47;5.30;;;4.90;;
76210;SDS011;65003;49.518;11.280;2023-05-07T09:59:13;4.53;;;4.22;;
76210;SDS011;65003;49.518;11.280;2023-05-07T10:01:40;5.72;;;5.22;;
76210;SDS011;65003;49.518;11.280;2023-05-07T10:04:06;5.50;;;4.33;;
76210;SDS011;65003;49.518;11.280;2023-05-07T10:06:32;4.50;;;3.90;;
76210;SDS011;65003;49.518;11.280;2023-05-07T10:08:59;4.47;;;3.77;;
76210;SDS011;65003;49.518;11.280;2023-05-07T10:11:26;4.87;;;4.30;;
76210;SDS011;65003;49.518;11.280;2023-05-07T10:13:52;4.67;;;4.27;;
76210;SDS011;65003;49.518;11.280;2023-05-07T10:16:19;4.97;;;4.43;;
76210;SDS011;65003;49.518;11.280;2023-05-07T10:18:45;3.90;;;3.60;;
76210;SDS011;65003;49.518;11.280;2023-05-07T10:21:16;5.10;;;4.67;;
76210;SDS011;65003;49.518;11.280;2023-05-07T10:23:44;4.87;;;4.47;;
76210;SDS011;65003;49.518;11.280;2023-05-07T10:26:10;3.93;;;3.53;;
76210;SDS011;65003;49.518;11.280;2023-05-07T10:28:38;4.40;;;3.87;;
76210;SDS011;65003;49.518;11.280;2023-05-07T10:33:53;5.03;;;3.17;;
76210;SDS011;65003;49.518;11.280;2023-05-07T10:36:20;6.27;;;3.40;;
76210;SDS011;65003;49.518;11.280;2023-05-07T10:38:46;4.90;;;3.40;;
76210;SDS011;65003;49.518;11.280;2023-05-07T10:41:13;3.50;;;3.20;;
76210;SDS011;65003;49.518;11.280;2023-05-07T10:43:40;4.17;;;3.77;;
76210;SDS011;65003;49.518;11.280;2023-05-07T10:46:10;3.47;;;3.17;;
76210;SDS011;65003;49.518;11.280;2023-05-07T10:49:06;4.30;;;3.90;;
76210;SDS011;65003;49.518;11.280;2023-05-07T10:53:41;3.90;;;3.33;;
76210;SDS011;65003;49.518;11.280;2023-05-07T10:58:50;2.83;;;2.63;;
76210;SDS011;65003;49.518;11.280;2023-05-07T11:01:20;2.90;;;2.57;;
76210;SDS011;65003;49.518;11.280;2023-05-07T11:04:15;3.37;;;2.60;;
76210;SDS011;65003;49.518;11.280;2023-05-07T11:06:41;3.43;;;3.00;;
76210;SDS011;65003;49.518;11.280;2023-05-07T11:09:07;3.20;;;2.90;;
76210;SDS011;65003;49.518;11.280;2023-05-07T11:14:09;4.10;;;3.20;;
76210;SDS011;65003;49.518;11.280;2023-05-07T11:16:36;5.23;;;3.47;;
76210;SDS011;65003;49.518;11.280;2023-05-07T11:19:03;3.23;;;2.93;;
76210;SDS011;65003;49.518;11.280;2023-05-07T11:21:32;3.10;;;2.60;;
76210;SDS011;65003;49.518;11.280;2023-05-07T11:23:58;3.17;;;2.70;;
76210;SDS011;65003;49.518;11.280;2023-05-07T11:26:24;4.13;;;3.00;;
76210;SDS011;65003;49.518;11.280;2023-05-07T11:28:51;3.83;;;2.77;;
76210;SDS011;65003;49.518;11.280;2023-05-07T11:31:22;3.50;;;3.20;;
76210;SDS011;65003;49.518;11.280;2023-05-07T11:33:47;3.20;;;2.90;;
76210;SDS011;65003;49.518;11.280;2023-05-07T11:36:14;2.60;;;2.40;;
76210;SDS011;65003;49.518;11.280;2023-05-07T11:38:40;3.30;;;2.70;;
76210;SDS011;65003;49.518;11.280;2023-05-07T11:41:07;3.63;;;3.00;;
76210;SDS011;65003;49.518;11.280;2023-05-07T11:43:33;4.07;;;2.57;;
76210;SDS011;65003;49.518;11.280;2023-05-07T11:46:07;3.20;;;2.57;;
76210;SDS011;65003;49.518;11.280;2023-05-07T11:48:32;2.63;;;2.43;;
76210;SDS011;65003;49.518;11.280;2023-05-07T11:51:00;4.07;;;2.40;;
76210;SDS011;65003;49.518;11.280;2023-05-07T11:56:09;2.83;;;2.57;;
76210;SDS011;65003;49.518;11.280;2023-05-07T11:58:37;2.63;;;1.93;;
76210;SDS011;65003;49.518;11.280;2023-05-07T12:01:03;2.73;;;2.10;;
76210;SDS011;65003;49.518;11.280;2023-05-07T12:03:30;2.00;;;1.80;;
76210;SDS011;65003;49.518;11.280;2023-05-07T12:05:57;1.77;;;1.40;;
76210;SDS011;65003;49.518;11.280;2023-05-07T12:08:24;1.60;;;1.50;;
76210;SDS011;65003;49.518;11.280;2023-05-07T12:10:50;2.00;;;1.83;;
76210;SDS011;65003;49.518;11.280;2023-05-07T12:13:18;4.57;;;2.47;;
76210;SDS011;65003;49.518;11.280;2023-05-07T12:15:44;2.40;;;2.20;;
76210;SDS011;65003;49.518;11.280;2023-05-07T12:18:11;2.90;;;2.60;;
76210;SDS011;65003;49.518;11.280;2023-05-07T12:20:38;5.03;;;2.90;;
76210;SDS011;65003;49.518;11.280;2023-05-07T12:23:04;2.80;;;2.60;;
76210;SDS011;65003;49.518;11.280;2023-05-07T12:25:31;4.43;;;3.20;;
76210;SDS011;65003;49.518;11.280;2023-05-07T12:28:00;4.13;;;3.27;;
76210;SDS011;65003;49.518;11.280;2023-05-07T12:30:25;4.37;;;3.60;;
76210;SDS011;65003;49.518;11.280;2023-05-07T12:32:53;3.77;;;3.30;;
76210;SDS011;65003;49.518;11.280;2023-05-07T12:35:26;3.40;;;3.10;;
76210;SDS011;65003;49.518;11.280;2023-05-07T12:37:57;3.20;;;2.90;;
76210;SDS011;65003;49.518;11.280;2023-05-07T12:40:23;3.70;;;3.00;;
76210;SDS011;65003;49.518;11.280;2023-05-07T12:42:52;3.27;;;2.70;;
76210;SDS011;65003;49.518;11.280;2023-05-07T12:45:16;3.43;;;3.07;;
76210;SDS011;65003;49.518;11.280;2023-05-07T12:47:43;3.10;;;2.83;;
76210;SDS011;65003;49.518;11.280;2023-05-07T12:50:10;4.03;;;2.90;;
76210;SDS011;65003;49.518;11.280;2023-05-07T12:52:37;3.57;;;3.27;;
76210;SDS011;65003;49.518;11.280;2023-05-07T12:55:04;3.17;;;2.97;;
76210;SDS011;65003;49.518;11.280;2023-05-07T12:57:30;3.23;;;3.03;;
76210;SDS011;65003;49.518;11.280;2023-05-07T12:59:57;3.47;;;2.97;;
76210;SDS011;65003;49.518;11.280;2023-05-07T13:02:31;4.00;;;3.53;;
76210;SDS011;65003;49.518;11.280;2023-05-07T13:04:50;4.53;;;3.27;;
76210;SDS011;65003;49.518;11.280;2023-05-07T13:07:17;4.00;;;3.43;;
76210;SDS011;65003;49.518;11.280;2023-05-07T13:09:44;3.07;;;2.77;;
76210;SDS011;65003;49.518;11.280;2023-05-07T13:12:10;3.77;;;3.30;;
76210;SDS011;65003;49.518;11.280;2023-05-07T13:14:37;4.10;;;2.93;;
76210;SDS011;65003;49.518;11.280;2023-05-07T13:17:03;3.73;;;3.33;;
76210;SDS011;65003;49.518;11.280;2023-05-07T13:19:30;3.93;;;3.10;;
76210;SDS011;65003;49.518;11.280;2023-05-07T13:21:57;5.67;;;3.40;;
76210;SDS011;65003;49.518;11.280;2023-05-07T13:24:23;3.23;;;2.93;;
76210;SDS011;65003;49.518;11.280;2023-05-07T13:26:50;3.27;;;2.97;;
76210;SDS011;65003;49.518;11.280;2023-05-07T13:29:17;3.13;;;2.93;;
76210;SDS011;65003;49.518;11.280;2023-05-07T13:31:43;4.10;;;2.90;;
76210;SDS011;65003;49.518;11.280;2023-05-07T13:34:10;4.47;;;3.33;;
76210;SDS011;65003;49.518;11.280;2023-05-07T13:36:36;4.50;;;3.37;;
76210;SDS011;65003;49.518;11.280;2023-05-07T13:39:03;3.17;;;2.87;;
76210;SDS011;65003;49.518;11.280;2023-05-07T13:41:30;4.37;;;3.27;;
76210;SDS011;65003;49.518;11.280;2023-05-07T13:43:56;3.20;;;2.90;;
76210;SDS011;65003;49.518;11.280;2023-05-07T13:46:23;4.30;;;3.63;;
76210;SDS011;65003;49.518;11.280;2023-05-07T13:48:49;4.93;;;3.67;;
76210;SDS011;65003;49.518;11.280;2023-05-07T13:51:16;3.20;;;2.90;;
76210;SDS011;65003;49.518;11.280;2023-05-07T13:53:43;4.33;;;3.20;;
76210;SDS011;65003;49.518;11.280;2023-05-07T13:56:09;3.67;;;3.03;;
76210;SDS011;65003;49.518;11.280;2023-05-07T13:58:36;3.57;;;3.27;;
76210;SDS011;65003;49.518;11.280;2023-05-07T14:01:02;4.03;;;3.17;;
76210;SDS011;65003;49.518;11.280;2023-05-07T14:03:29;3.33;;;3.00;;
76210;SDS011;65003;49.518;11.280;2023-05-07T14:05:56;4.50;;;3.47;;
76210;SDS011;65003;49.518;11.280;2023-05-07T14:08:22;4.20;;;3.37;;
76210;SDS011;65003;49.518;11.280;2023-05-07T14:10:49;5.80;;;3.27;;
76210;SDS011;65003;49.518;11.280;2023-05-07T14:13:15;3.67;;;3.03;;
76210;SDS011;65003;49.518;11.280;2023-05-07T14:15:42;3.30;;;3.00;;
76210;SDS011;65003;49.518;11.280;2023-05-07T14:18:08;3.03;;;2.77;;
76210;SDS011;65003;49.518;11.280;2023-05-07T14:20:35;5.50;;;3.40;;
76210;SDS011;65003;49.518;11.280;2023-05-07T14:23:02;3.73;;;3.20;;
76210;SDS011;65003;49.518;11.280;2023-05-07T14:25:29;3.50;;;3.20;;
76210;SDS011;65003;49.518;11.280;2023-05-07T14:27:55;4.10;;;3.53;;
76210;SDS011;65003;49.518;11.280;2023-05-07T14:30:22;4.03;;;3.60;;
76210;SDS011;65003;49.518;11.280;2023-05-07T14:32:48;3.80;;;3.50;;
76210;SDS011;65003;49.518;11.280;2023-05-07T14:35:15;3.70;;;3.30;;
76210;SDS011;65003;49.518;11.280;2023-05-07T14:37:42;4.03;;;3.53;;
76210;SDS011;65003;49.518;11.280;2023-05-07T14:40:08;4.63;;;3.03;;
76210;SDS011;65003;49.518;11.280;2023-05-07T14:42:35;3.23;;;2.93;;
76210;SDS011;65003;49.518;11.280;2023-05-07T14:45:02;6.23;;;3.17;;